Time;durP1;ratioP1;P1;durP2;ratioP2;P2;SDS_P1;SDS_P2;PMS_P1;PMS_P2;Temp;Humidity;BMP_temperature;BMP_pressure;BME280_temperature;BME280_humidity;BME280_pressure;Samples;Min_cycle;Max_cycle;Signal;HPM_P1;HPM_P2
2021/03/27 00:00:52;;;;;;;2.65;1.95;;;;;;;8.56;67.41;99765.22;5015396;28;20080;-63
2021/03/27 00:03:22;;;;;;;2.05;1.67;;;;;;;8.56;67.27;99769.50;5016770;28;20057;-62
2021/03/27 00:06:04;;;;;;;1.80;1.70;;;;;;;8.57;67.10;99776.41;5016345;28;20042;-62
2021/03/27 00:08:57;;;;;;;3.20;1.65;;;;;;;8.55;67.28;99778.97;4999115;28;20117;-62
2021/03/27 00:11:34;;;;;;;3.70;1.73;;;;;;;8.56;67.38;99783.31;5016973;28;20128;-62
2021/03/27 00:14:13;;;;;;;2.05;1.63;;;;;;;8.58;67.23;99788.50;5016422;28;20033;-62
2021/03/27 00:16:55;;;;;;;3.00;1.52;;;;;;;8.57;67.19;99794.50;5016742;28;20041;-63
2021/03/27 00:19:40;;;;;;;2.88;2.20;;;;;;;8.55;67.12;99788.41;5015163;28;20038;-63
2021/03/27 00:22:47;;;;;;;2.92;2.28;;;;;;;8.55;67.19;99799.66;4998954;28;20575;-63
2021/03/27 00:25:26;;;;;;;6.03;2.10;;;;;;;8.54;67.19;99795.31;4993800;28;20057;-63
2021/03/27 00:28:07;;;;;;;5.93;2.17;;;;;;;8.53;67.15;99788.41;5016069;28;20041;-63
2021/03/27 00:30:35;;;;;;;5.70;2.70;;;;;;;8.50;67.29;99784.03;5015882;28;20068;-63
2021/03/27 00:33:12;;;;;;;5.43;2.30;;;;;;;8.51;67.22;99790.94;4998611;28;20081;-63
2021/03/27 00:35:42;;;;;;;5.43;2.00;;;;;;;8.48;67.45;99785.72;4997643;28;20042;-63
2021/03/27 00:38:17;;;;;;;3.13;2.13;;;;;;;8.47;67.34;99783.97;5015671;28;20037;-63
2021/03/27 00:40:51;;;;;;;2.80;2.08;;;;;;;8.48;67.20;99783.16;5015988;28;20077;-62
2021/03/27 00:43:43;;;;;;;2.67;1.95;;;;;;;8.46;67.13;99777.03;5014829;28;20088;-63
2021/03/27 00:46:11;;;;;;;3.85;2.15;;;;;;;8.46;67.36;99784.78;4998159;28;20080;-63
2021/03/27 00:48:37;;;;;;;2.30;1.85;;;;;;;8.47;67.20;99781.38;5014130;28;20074;-62
2021/03/27 00:51:32;;;;;;;3.83;2.72;;;;;;;8.47;67.13;99790.81;5015414;28;20057;-63
2021/03/27 00:54:30;;;;;;;6.50;2.65;;;;;;;8.43;67.17;99804.50;5015489;28;20042;-62
2021/03/27 00:57:10;;;;;;;7.90;3.28;;;;;;;8.43;67.22;99817.41;5015637;28;20091;-64
2021/03/27 00:59:53;;;;;;;5.43;3.28;;;;;;;8.42;67.28;99819.13;5013767;28;20038;-63
2021/03/27 01:02:20;;;;;;;5.55;3.17;;;;;;;8.41;67.42;99808.78;5015609;28;20054;-63
2021/03/27 01:04:51;;;;;;;6.00;3.15;;;;;;;8.37;67.45;99800.97;4997713;28;20110;-64
2021/03/27 01:07:25;;;;;;;5.45;3.28;;;;;;;8.37;67.36;99802.66;5015706;28;20052;-62
2021/03/27 01:09:58;;;;;;;5.30;3.30;;;;;;;8.35;67.23;99809.50;5015651;28;20062;-63
2021/03/27 01:12:35;;;;;;;7.05;2.95;;;;;;;8.34;67.25;99813.81;5015509;28;20495;-62
2021/03/27 01:15:10;;;;;;;10.73;3.22;;;;;;;8.30;67.36;99811.13;5015285;28;20037;-63
2021/03/27 01:17:41;;;;;;;4.93;2.83;;;;;;;8.33;67.26;99821.53;5015029;28;20056;-63
2021/03/27 01:20:17;;;;;;;7.10;2.63;;;;;;;8.32;67.22;99820.66;5013895;28;20034;-62
2021/03/27 01:22:50;;;;;;;6.22;3.00;;;;;;;8.31;67.22;99818.03;4998060;28;20030;-62
2021/03/27 01:25:28;;;;;;;9.27;2.78;;;;;;;8.28;67.14;99820.56;5013497;28;20035;-63
2021/03/27 01:28:04;;;;;;;8.65;2.40;;;;;;;8.27;67.12;99823.97;5015087;28;20444;-62
2021/03/27 01:30:32;;;;;;;5.25;2.28;;;;;;;8.28;67.34;99824.00;5014889;28;20109;-64
2021/03/27 01:33:11;;;;;;;6.50;2.70;;;;;;;8.27;67.11;99822.25;5014345;28;20045;-63
2021/03/27 01:36:07;;;;;;;8.52;3.28;;;;;;;8.26;67.04;99817.91;5013841;28;20088;-63
2021/03/27 01:38:44;;;;;;;6.65;3.13;;;;;;;8.22;67.28;99821.28;5014717;28;20120;-63
2021/03/27 01:41:30;;;;;;;6.47;2.53;;;;;;;8.21;67.42;99812.66;5013855;28;20030;-62
2021/03/27 01:44:10;;;;;;;6.38;2.70;;;;;;;8.21;67.72;99820.41;5014954;28;20054;-62
2021/03/27 01:46:52;;;;;;;5.65;2.33;;;;;;;8.21;67.42;99822.13;5013959;28;20034;-63
2021/03/27 01:49:33;;;;;;;6.07;2.38;;;;;;;8.16;67.49;99827.19;5013193;28;20088;-63
2021/03/27 01:52:20;;;;;;;8.35;2.22;;;;;;;8.18;67.37;99824.63;5014844;28;20088;-63
2021/03/27 01:55:21;;;;;;;8.95;2.55;;;;;;;8.19;67.40;99831.56;5013038;28;20525;-63
2021/03/27 01:58:00;;;;;;;6.20;2.60;;;;;;;8.18;67.12;99828.06;5014258;28;20040;-63
2021/03/27 02:00:41;;;;;;;8.02;2.72;;;;;;;8.16;67.16;99832.38;5014670;28;20092;-63
2021/03/27 02:03:28;;;;;;;10.15;2.88;;;;;;;8.16;67.19;99828.88;5014125;28;20042;-62
2021/03/27 02:06:12;;;;;;;7.15;2.83;;;;;;;8.14;67.40;99838.31;5014302;28;20030;-63
2021/03/27 02:09:04;;;;;;;5.22;2.92;;;;;;;8.13;67.17;99846.88;5013358;28;20041;-62
2021/03/27 02:11:35;;;;;;;8.57;3.35;;;;;;;8.11;67.26;99854.59;5014383;28;20030;-62
2021/03/27 02:14:19;;;;;;;8.25;2.63;;;;;;;8.08;67.15;99852.84;5014269;28;20091;-63
2021/03/27 02:16:59;;;;;;;9.95;2.58;;;;;;;8.11;67.28;99848.56;5014589;28;20038;-63
2021/03/27 02:19:34;;;;;;;6.18;2.53;;;;;;;8.05;67.55;99860.50;5014081;28;20533;-63
2021/03/27 02:22:14;;;;;;;8.13;3.30;;;;;;;8.06;67.32;99853.63;5014173;28;20112;-63
2021/03/27 02:24:53;;;;;;;10.63;3.33;;;;;;;8.06;67.37;99854.50;5013625;28;20525;-62
2021/03/27 02:27:30;;;;;;;6.07;2.75;;;;;;;8.08;67.24;99857.13;5013310;28;20033;-62
2021/03/27 02:30:07;;;;;;;7.55;2.67;;;;;;;8.05;67.18;99852.75;5014109;28;20045;-63
2021/03/27 02:32:55;;;;;;;8.98;3.83;;;;;;;8.03;67.25;99863.88;4995963;28;20038;-62
2021/03/27 02:35:26;;;;;;;5.40;2.10;;;;;;;8.01;67.36;99861.25;4996054;28;20069;-63
2021/03/27 02:38:02;;;;;;;6.05;2.42;;;;;;;8.02;67.31;99882.81;5013817;28;20041;-63
2021/03/27 02:40:36;;;;;;;8.18;2.60;;;;;;;8.02;66.92;99880.22;5014089;28;20045;-62
2021/03/27 02:43:38;;;;;;;8.88;3.03;;;;;;;8.03;67.11;99889.69;5013875;28;20072;-64
2021/03/27 02:46:27;;;;;;;4.53;2.13;;;;;;;8.01;67.07;99887.06;5013707;28;20041;-63
2021/03/27 02:49:15;;;;;;;10.98;3.75;;;;;;;8.02;67.23;99893.13;5013788;28;20095;-63
2021/03/27 02:52:04;;;;;;;5.07;2.17;;;;;;;8.02;67.19;99901.72;5013727;28;20042;-63
2021/03/27 02:54:47;;;;;;;4.78;2.33;;;;;;;8.03;67.27;99902.59;5013502;28;20046;-63
2021/03/27 02:57:30;;;;;;;8.63;2.58;;;;;;;7.99;67.14;99911.13;5013309;28;20030;-63
2021/03/27 03:00:08;;;;;;;4.93;2.10;;;;;;;7.99;67.09;99905.94;5013228;28;20048;-62
2021/03/27 03:02:58;;;;;;;3.72;2.10;;;;;;;7.96;67.02;99905.88;5013573;28;20050;-63
2021/03/27 03:05:59;;;;;;;2.10;1.70;;;;;;;7.97;67.41;99915.34;5013601;28;20037;-62
2021/03/27 03:08:39;;;;;;;4.85;1.95;;;;;;;7.95;67.06;99912.72;4971958;28;20090;-63
2021/03/27 03:11:27;;;;;;;5.95;3.15;;;;;;;7.91;67.04;99916.94;4991069;28;20266;-62
2021/03/27 03:14:15;;;;;;;5.53;2.67;;;;;;;7.90;67.33;99917.78;5013737;28;20045;-63
2021/03/27 03:17:01;;;;;;;6.60;2.40;;;;;;;7.91;67.15;99922.09;5012421;28;20515;-63
2021/03/27 03:20:07;;;;;;;6.90;2.80;;;;;;;7.87;67.33;99924.56;5012996;28;20104;-63
2021/03/27 03:22:46;;;;;;;8.65;2.95;;;;;;;7.88;67.02;99913.41;4989502;28;20042;-63
2021/03/27 03:25:18;;;;;;;8.02;2.33;;;;;;;7.86;67.05;99909.94;5013412;28;20099;-62
2021/03/27 03:28:15;;;;;;;5.80;2.55;;;;;;;7.84;67.30;99915.06;5013309;28;20038;-62
2021/03/27 03:30:53;;;;;;;5.22;2.53;;;;;;;7.87;67.06;99909.94;4995769;28;20530;-63
2021/03/27 03:33:43;;;;;;;9.57;2.67;;;;;;;7.84;67.15;99909.91;5013356;28;20041;-62
2021/03/27 03:36:52;;;;;;;8.20;2.83;;;;;;;7.84;66.82;99916.75;5011793;28;20422;-62
2021/03/27 03:39:33;;;;;;;5.60;2.25;;;;;;;7.83;67.41;99926.22;5012997;28;20069;-62
2021/03/27 03:42:19;;;;;;;8.85;2.63;;;;;;;7.83;67.00;99922.75;5013320;28;20030;-63
2021/03/27 03:44:47;;;;;;;4.20;3.08;;;;;;;7.84;67.47;99934.81;5013636;28;20121;-63
2021/03/27 03:47:36;;;;;;;7.85;3.17;;;;;;;7.84;67.32;99937.41;5013543;28;20091;-62
2021/03/27 03:50:19;;;;;;;8.50;2.75;;;;;;;7.85;67.33;99941.72;5013296;28;20034;-63
2021/03/27 03:53:18;;;;;;;10.17;3.20;;;;;;;7.83;66.90;99943.38;5012869;28;20053;-63
2021/03/27 03:56:02;;;;;;;4.57;2.40;;;;;;;7.83;67.50;99945.97;5013223;28;20041;-63
2021/03/27 03:58:59;;;;;;;6.75;3.20;;;;;;;7.83;67.47;99944.28;5013357;28;20041;-64
2021/03/27 04:01:51;;;;;;;6.78;3.40;;;;;;;7.81;67.12;99951.09;5012560;28;20049;-62
2021/03/27 04:04:32;;;;;;;13.10;3.53;;;;;;;7.82;67.50;99951.97;5011954;28;20122;-62
2021/03/27 04:07:06;;;;;;;13.93;3.83;;;;;;;7.81;67.28;99945.06;4995622;28;20057;-62
2021/03/27 04:09:43;;;;;;;10.90;3.72;;;;;;;7.82;67.34;99957.13;4995427;28;20125;-62
2021/03/27 04:12:19;;;;;;;10.15;2.83;;;;;;;7.77;67.13;99951.84;4998841;28;20459;-62
2021/03/27 04:15:14;;;;;;;7.68;3.08;;;;;;;7.72;67.03;99953.41;5016584;28;20045;-62
2021/03/27 04:17:40;;;;;;;;;;;;;;;7.74;67.29;99959.50;5015611;28;20038;-63
2021/03/27 04:20:17;;;;;;;7.88;3.22;;;;;;;7.75;67.19;99979.31;4999495;28;19913;-63
2021/03/27 04:22:50;;;;;;;9.82;3.08;;;;;;;7.76;67.34;99974.22;5016436;28;20034;-63
2021/03/27 04:25:25;;;;;;;11.70;3.42;;;;;;;7.74;67.14;99972.41;4998486;28;20034;-63
2021/03/27 04:28:07;;;;;;;9.15;3.17;;;;;;;7.71;67.41;99977.47;5016252;28;20125;-62
2021/03/27 04:30:39;;;;;;;10.02;3.35;;;;;;;7.74;67.20;99982.72;5015603;28;20069;-62
2021/03/27 04:33:19;;;;;;;11.05;3.15;;;;;;;7.73;67.09;99989.59;5015181;28;20037;-63
2021/03/27 04:35:58;;;;;;;11.98;3.65;;;;;;;7.72;67.52;99979.22;4998166;28;20499;-63
2021/03/27 04:38:45;;;;;;;7.45;3.58;;;;;;;7.74;67.05;99990.47;5015567;28;20038;-62
2021/03/27 04:41:24;;;;;;;13.95;3.70;;;;;;;7.71;67.23;99996.41;5016117;28;20126;-62
2021/03/27 04:44:03;;;;;;;12.73;3.20;;;;;;;7.71;67.49;99998.09;5015728;28;20037;-62
2021/03/27 04:46:54;;;;;;;8.43;2.92;;;;;;;7.70;67.26;99998.97;5015896;28;20088;-63
2021/03/27 04:49:31;;;;;;;7.50;3.42;;;;;;;7.68;67.26;99998.91;5015936;28;20564;-62
2021/03/27 04:52:05;;;;;;;11.30;3.75;;;;;;;7.68;67.20;100009.22;5015860;28;20042;-62
2021/03/27 04:54:37;;;;;;;13.80;3.88;;;;;;;7.70;67.30;99996.41;4998113;28;20048;-63
2021/03/27 04:57:18;;;;;;;14.25;3.65;;;;;;;7.68;67.12;99998.06;5014263;28;20034;-63
2021/03/27 04:59:49;;;;;;;10.35;3.83;;;;;;;7.70;67.15;100006.72;4997734;28;20045;-62
2021/03/27 05:02:19;;;;;;;12.63;4.35;;;;;;;7.70;66.89;100005.00;5015441;28;20076;-63
2021/03/27 05:05:06;;;;;;;10.20;4.18;;;;;;;7.71;67.34;100008.44;5015756;28;20040;-63
2021/03/27 05:07:47;;;;;;;13.27;4.28;;;;;;;7.71;67.09;100018.75;5013861;28;20048;-63
2021/03/27 05:10:24;;;;;;;7.68;3.80;;;;;;;7.67;67.25;100011.78;5014837;28;20033;-63
2021/03/27 05:13:15;;;;;;;14.10;4.18;;;;;;;7.66;67.19;100020.34;5015195;28;20056;-62
2021/03/27 05:15:49;;;;;;;12.40;4.15;;;;;;;7.67;67.15;100025.53;5014906;28;20037;-63
2021/03/27 05:18:29;;;;;;;8.45;3.65;;;;;;;7.69;67.14;100028.19;5015234;28;20038;-63
2021/03/27 05:21:07;;;;;;;12.88;4.13;;;;;;;7.68;67.17;100054.81;5015629;28;20034;-63
2021/03/27 05:23:54;;;;;;;6.85;3.60;;;;;;;7.69;66.98;100048.81;5014783;28;20072;-63
2021/03/27 05:26:46;;;;;;;10.00;3.97;;;;;;;7.70;67.04;100068.63;5015104;28;20117;-62
2021/03/27 05:29:18;;;;;;;12.20;4.10;;;;;;;7.68;67.42;100078.03;5015485;28;20034;-62
2021/03/27 05:31:54;;;;;;;7.75;3.33;;;;;;;7.63;66.93;100095.94;5015179;28;20037;-63
2021/03/27 05:34:41;;;;;;;7.82;3.15;;;;;;;7.58;67.15;100111.28;5014614;28;20041;-63
2021/03/27 05:37:19;;;;;;;6.28;2.92;;;;;;;7.49;67.10;100153.97;5014657;28;20037;-62
2021/03/27 05:39:54;;;;;;;9.07;2.55;;;;;;;7.38;66.99;100131.31;5015029;28;20046;-62
2021/03/27 05:42:52;;;;;;;10.55;2.75;;;;;;;7.31;67.18;100107.06;5013905;28;20041;-62
2021/03/27 05:45:48;;;;;;;6.15;2.75;;;;;;;7.30;67.21;100109.59;4989156;28;20049;-62
2021/03/27 05:48:51;;;;;;;5.70;2.55;;;;;;;7.35;67.25;100100.28;4997351;28;20469;-63
2021/03/27 05:52:11;;;;;;;5.78;2.28;;;;;;;7.35;67.07;100126.06;4997026;28;20092;-63
2021/03/27 05:54:49;;;;;;;3.55;1.95;;;;;;;7.37;67.44;100132.16;4973486;28;20166;-62
2021/03/27 05:57:23;;;;;;;4.80;2.20;;;;;;;7.37;67.49;100132.16;5014691;28;20042;-63
2021/03/27 06:00:14;;;;;;;6.05;2.45;;;;;;;7.32;67.35;100138.84;5013472;28;20069;-62
2021/03/27 06:02:58;;;;;;;4.57;2.55;;;;;;;7.30;67.19;100122.50;5014085;28;20045;-62
2021/03/27 06:05:51;;;;;;;2.75;1.83;;;;;;;7.30;67.38;100125.94;5014549;28;20030;-62
2021/03/27 06:08:26;;;;;;;5.97;2.30;;;;;;;7.31;67.38;100137.13;5014127;28;20069;-62
2021/03/27 06:11:17;;;;;;;5.80;1.92;;;;;;;7.28;67.14;100139.63;5013814;28;20041;-63
2021/03/27 06:13:48;;;;;;;4.63;2.10;;;;;;;7.28;67.29;100125.00;5014466;28;20046;-62
2021/03/27 06:16:46;;;;;;;3.30;1.73;;;;;;;7.27;67.47;100136.13;5014352;28;20030;-63
2021/03/27 06:19:12;;;;;;;3.38;1.58;;;;;;;7.24;67.05;100130.03;5012681;28;20084;-63
2021/03/27 06:21:46;;;;;;;4.18;2.03;;;;;;;7.24;67.44;100142.91;5014268;28;20060;-63
2021/03/27 06:24:27;;;;;;;3.55;1.67;;;;;;;7.24;67.28;100137.75;5014169;28;20100;-62
2021/03/27 06:26:58;;;;;;;3.85;1.83;;;;;;;7.21;67.18;100154.00;5012925;28;20053;-62
2021/03/27 06:30:01;;;;;;;7.57;2.45;;;;;;;7.23;67.08;100133.44;5013815;28;20092;-62
2021/03/27 06:32:48;;;;;;;4.85;1.58;;;;;;;7.23;67.30;100151.47;5014107;28;20032;-63
2021/03/27 06:35:35;;;;;;;4.05;2.15;;;;;;;7.24;67.32;100150.66;5013573;28;20120;-63
2021/03/27 06:38:39;;;;;;;3.42;1.70;;;;;;;7.22;67.26;100149.72;5013426;28;20037;-63
2021/03/27 06:41:31;;;;;;;3.87;2.13;;;;;;;7.19;67.09;100167.66;5013240;28;20045;-63
2021/03/27 06:44:35;;;;;;;5.72;2.22;;;;;;;7.21;67.38;100174.63;4995587;28;20160;-63
2021/03/27 06:47:25;;;;;;;4.43;1.88;;;;;;;7.19;67.55;100171.13;4986531;28;20070;-63
2021/03/27 06:50:28;;;;;;;3.13;1.92;;;;;;;7.22;67.43;100185.81;5013843;28;20056;-64
2021/03/27 06:53:14;;;;;;;3.30;2.28;;;;;;;7.23;67.46;100192.72;5013710;28;20093;-62
2021/03/27 06:55:48;;;;;;;5.55;2.47;;;;;;;7.26;67.07;100192.81;5012437;28;20514;-63
2021/03/27 06:58:32;;;;;;;7.13;2.67;;;;;;;7.24;67.26;100200.50;5013225;28;20491;-62
2021/03/27 07:01:19;;;;;;;3.03;2.22;;;;;;;7.25;67.10;100202.25;4979403;28;20418;-63
2021/03/27 07:04:21;;;;;;;4.32;2.10;;;;;;;7.23;67.41;100215.91;5011958;28;20507;-63
2021/03/27 07:07:08;;;;;;;6.80;2.58;;;;;;;7.24;67.40;100225.41;5013325;28;20033;-63
2021/03/27 07:10:07;;;;;;;11.77;2.88;;;;;;;7.23;67.49;100223.66;5013743;28;20497;-63
2021/03/27 07:13:06;;;;;;;6.78;2.38;;;;;;;7.21;67.11;100236.50;4996141;28;20396;-63
2021/03/27 07:16:04;;;;;;;7.80;2.50;;;;;;;7.21;67.02;100231.34;5013216;28;20073;-62
2021/03/27 07:18:56;;;;;;;3.45;2.15;;;;;;;7.22;67.13;100240.84;4994149;28;20049;-64
2021/03/27 07:22:03;;;;;;;7.72;3.03;;;;;;;7.22;67.17;100233.09;5013644;28;20046;-63
2021/03/27 07:24:50;;;;;;;6.47;2.53;;;;;;;7.24;67.24;100243.47;5013485;28;20046;-63
2021/03/27 07:27:39;;;;;;;11.98;2.75;;;;;;;7.24;67.17;100246.91;4996304;28;20510;-62
2021/03/27 07:30:27;;;;;;;8.13;3.08;;;;;;;7.26;67.35;100246.97;4995709;28;20048;-62
2021/03/27 07:33:11;;;;;;;4.57;2.53;;;;;;;7.22;67.45;100252.84;5013386;28;20034;-63
2021/03/27 07:36:17;;;;;;;8.48;2.63;;;;;;;7.22;67.08;100246.00;5013379;28;20046;-63
2021/03/27 07:38:54;;;;;;;8.88;3.17;;;;;;;7.24;67.24;100259.78;4995580;28;20125;-63
2021/03/27 07:41:46;;;;;;;3.60;2.40;;;;;;;7.24;67.03;100276.97;5013906;28;20040;-63
2021/03/27 07:44:39;;;;;;;9.95;3.63;;;;;;;7.26;67.48;100275.31;5013041;28;20030;-62
2021/03/27 07:47:22;;;;;;;9.15;3.53;;;;;;;7.28;67.13;100271.09;5017420;28;20044;-63
2021/03/27 07:50:13;;;;;;;7.05;3.95;;;;;;;7.26;67.38;100273.59;5016605;28;20061;-63
2021/03/27 07:53:01;;;;;;;9.68;3.58;;;;;;;7.28;67.26;100279.69;5016957;28;20475;-63
2021/03/27 07:55:58;;;;;;;12.57;4.45;;;;;;;7.27;67.09;100290.84;5016101;28;20037;-63
2021/03/27 07:58:51;;;;;;;10.77;4.43;;;;;;;7.27;67.04;100296.00;5016786;28;20503;-63
2021/03/27 08:01:59;;;;;;;9.27;3.72;;;;;;;7.26;67.18;100298.53;5016718;28;20073;-62
2021/03/27 08:05:00;;;;;;;13.73;4.30;;;;;;;7.26;67.16;100301.97;4996617;28;20046;-63
2021/03/27 08:07:52;;;;;;;11.95;3.42;;;;;;;7.27;67.39;100316.63;4999160;28;20410;-62
2021/03/27 08:10:33;;;;;;;10.63;5.10;;;;;;;7.31;67.62;100317.63;5016961;28;20137;-63
2021/03/27 08:12:58;;;;;;;11.80;3.20;;;;;;;7.31;67.46;100313.31;4999146;28;20060;-62
2021/03/27 08:15:42;;;;;;;11.57;3.83;;;;;;;7.30;67.21;100326.19;5016357;28;20495;-63
2021/03/27 08:18:56;;;;;;;14.93;3.60;;;;;;;7.30;67.33;100328.75;5015539;28;20065;-63
2021/03/27 08:21:24;;;;;;;12.63;3.85;;;;;;;7.32;67.52;100327.06;4999166;28;20407;-63
2021/03/27 08:24:19;;;;;;;10.32;3.85;;;;;;;7.34;67.06;100328.00;4998735;28;20033;-63
2021/03/27 08:27:21;;;;;;;14.45;4.03;;;;;;;7.34;67.23;100330.59;5015740;28;20148;-63
2021/03/27 08:30:31;;;;;;;9.40;3.83;;;;;;;7.36;67.46;100325.50;4998793;28;20034;-63
2021/03/27 08:33:19;;;;;;;15.05;4.53;;;;;;;7.33;67.12;100334.00;5015753;28;20026;-63
2021/03/27 08:36:01;;;;;;;16.58;4.38;;;;;;;7.35;67.20;100337.50;4980474;28;20054;-63
2021/03/27 08:38:55;;;;;;;13.73;4.00;;;;;;;7.35;67.28;100334.06;5015876;28;20518;-62
2021/03/27 08:41:23;;;;;;;16.05;5.03;;;;;;;7.36;67.12;100349.56;4997840;28;20439;-63
2021/03/27 08:44:16;;;;;;;9.40;4.20;;;;;;;7.38;67.35;100357.38;5015870;28;20030;-63
2021/03/27 08:47:12;;;;;;;13.25;4.18;;;;;;;7.35;67.63;100363.28;4998542;28;20040;-63
2021/03/27 08:49:56;;;;;;;14.95;3.58;;;;;;;7.36;67.35;100365.03;5014431;28;20121;-62
2021/03/27 08:52:53;;;;;;;13.95;3.38;;;;;;;7.37;67.10;100377.13;4998265;28;20041;-63
2021/03/27 08:55:44;;;;;;;15.38;5.10;;;;;;;7.37;67.13;100387.44;4998378;28;20398;-62
2021/03/27 08:58:31;;;;;;;14.93;4.25;;;;;;;7.35;67.54;100380.47;5014692;28;20037;-63
2021/03/27 09:01:25;;;;;;;11.63;3.33;;;;;;;7.34;67.25;100382.16;5015614;28;20030;-62
2021/03/27 09:04:08;;;;;;;9.83;3.87;;;;;;;7.32;67.38;100397.59;5014525;28;20060;-64
2021/03/27 09:06:56;;;;;;;13.50;4.03;;;;;;;7.33;67.19;100401.03;5015732;28;20034;-62
2021/03/27 09:09:54;;;;;;;9.43;3.83;;;;;;;7.36;67.30;100403.72;5014179;28;20471;-63
2021/03/27 09:13:03;;;;;;;8.07;2.42;;;;;;;7.35;67.19;100421.72;4990875;28;20053;-62
2021/03/27 09:16:06;;;;;;;9.43;3.33;;;;;;;7.35;67.11;100414.00;4995791;28;20065;-62
2021/03/27 09:19:11;;;;;;;9.65;3.17;;;;;;;7.31;67.24;100416.47;4997550;28;20085;-63
2021/03/27 09:21:55;;;;;;;10.35;3.25;;;;;;;7.32;67.06;100422.47;4997668;28;20041;-63
2021/03/27 09:24:32;;;;;;;9.07;3.00;;;;;;;7.30;67.10;100424.16;4997525;28;20125;-63
2021/03/27 09:27:37;;;;;;;6.72;3.05;;;;;;;7.30;67.01;100425.00;5013597;28;20034;-63
2021/03/27 09:30:23;;;;;;;8.55;3.50;;;;;;;7.32;67.53;100425.94;5015105;28;20483;-62
2021/03/27 09:33:07;;;;;;;8.75;3.03;;;;;;;7.38;67.38;100433.03;5014993;28;20054;-63
2021/03/27 09:35:59;;;;;;;11.80;3.78;;;;;;;7.41;67.43;100429.66;4981136;28;20033;-63
2021/03/27 09:38:33;;;;;;;7.00;3.17;;;;;;;7.46;67.37;100438.44;4995744;28;20061;-63
2021/03/27 09:41:30;;;;;;;13.43;3.70;;;;;;;7.52;67.22;100443.84;4996973;28;20044;-63
2021/03/27 09:44:05;;;;;;;11.50;3.75;;;;;;;7.59;67.68;100445.78;5013482;28;20053;-63
2021/03/27 09:46:55;;;;;;;9.88;3.58;;;;;;;7.63;67.50;100439.03;5014683;28;20033;-62
2021/03/27 09:49:36;;;;;;;5.97;3.15;;;;;;;7.66;67.40;100443.44;4997352;28;20108;-63
2021/03/27 09:52:36;;;;;;;8.63;3.85;;;;;;;7.67;67.39;100450.34;5014779;28;20040;-62
2021/03/27 09:55:39;;;;;;;7.20;3.08;;;;;;;7.62;67.31;100478.56;4973421;28;20043;-62
2021/03/27 09:58:10;;;;;;;11.88;3.50;;;;;;;7.63;66.92;100472.56;5014585;28;20372;-62
2021/03/27 10:00:48;;;;;;;6.55;2.92;;;;;;;7.60;67.10;100469.91;5012990;28;20519;-63
2021/03/27 10:03:25;;;;;;;8.02;3.97;;;;;;;7.65;67.10;100476.06;5012879;28;20128;-62
2021/03/27 10:05:54;;;;;;;7.57;3.55;;;;;;;7.70;67.10;100471.09;5013403;28;20061;-63
2021/03/27 10:08:35;;;;;;;15.07;3.15;;;;;;;7.70;67.27;100473.69;5013465;28;20499;-63
2021/03/27 10:11:08;;;;;;;9.10;3.80;;;;;;;7.75;67.11;100482.44;4996615;28;20120;-63
2021/03/27 10:13:39;;;;;;;6.57;3.33;;;;;;;7.77;66.91;100475.63;5014661;28;20061;-63
2021/03/27 10:16:31;;;;;;;10.02;3.13;;;;;;;7.81;67.30;100479.19;5014206;28;20495;-62
2021/03/27 10:19:17;;;;;;;12.90;3.00;;;;;;;7.80;67.14;100488.63;4996549;28;20044;-63
2021/03/27 10:22:12;;;;;;;9.90;3.42;;;;;;;7.77;67.02;100496.25;5014059;28;20037;-63
2021/03/27 10:24:46;;;;;;;7.80;3.10;;;;;;;7.78;66.96;100498.88;5014250;28;20080;-62
2021/03/27 10:27:24;;;;;;;12.98;3.80;;;;;;;7.78;67.05;100500.59;4996511;28;20033;-63
2021/03/27 10:30:18;;;;;;;9.80;3.60;;;;;;;7.79;66.89;100507.53;5013508;28;20041;-63
2021/03/27 10:33:13;;;;;;;9.18;4.05;;;;;;;7.83;67.03;100493.91;5014420;28;20029;-63
2021/03/27 10:35:55;;;;;;;8.73;3.08;;;;;;;7.85;67.08;100505.16;5012694;28;20038;-63
2021/03/27 10:38:38;;;;;;;10.70;3.38;;;;;;;7.86;67.01;100513.78;4996223;28;20034;-63
2021/03/27 10:41:22;;;;;;;12.13;3.92;;;;;;;7.89;66.87;100521.63;5013329;28;20092;-62
2021/03/27 10:44:16;;;;;;;12.32;3.83;;;;;;;7.91;66.85;100525.16;5013852;28;20544;-62
2021/03/27 10:46:52;;;;;;;9.82;3.22;;;;;;;7.95;66.82;100520.97;5012575;28;20061;-62
2021/03/27 10:49:36;;;;;;;14.20;3.38;;;;;;;7.98;66.62;100526.22;4996568;28;20044;-63
2021/03/27 10:52:34;;;;;;;10.13;3.17;;;;;;;8.02;66.85;100534.13;5013788;28;20050;-63
2021/03/27 10:55:20;;;;;;;7.65;2.88;;;;;;;8.06;66.71;100535.09;4990745;28;20077;-62
2021/03/27 10:58:22;;;;;;;7.57;2.88;;;;;;;8.08;66.59;100543.78;4980195;28;20569;-63
2021/03/27 11:01:00;;;;;;;7.97;3.63;;;;;;;8.09;66.92;100545.53;5012370;28;20034;-63
2021/03/27 11:04:00;;;;;;;5.25;2.42;;;;;;;8.13;66.81;100544.81;5011955;28;20057;-64
2021/03/27 11:06:36;;;;;;;8.15;3.22;;;;;;;8.14;66.52;100549.16;4995723;28;20148;-62
2021/03/27 11:09:20;;;;;;;11.98;2.80;;;;;;;8.19;66.61;100547.59;5011932;28;20029;-63
2021/03/27 11:12:07;;;;;;;6.88;2.85;;;;;;;8.19;66.34;100555.34;4995855;28;20466;-63
2021/03/27 11:14:32;;;;;;;7.82;2.88;;;;;;;8.18;66.53;100561.31;5013734;28;20042;-63
2021/03/27 11:17:04;;;;;;;11.00;3.10;;;;;;;8.18;66.56;100556.16;4995863;28;20406;-62
2021/03/27 11:19:50;;;;;;;5.47;3.03;;;;;;;8.16;66.27;100555.25;5012781;28;20511;-63
2021/03/27 11:22:27;;;;;;;8.45;3.38;;;;;;;8.14;66.38;100571.50;4999833;28;20042;-63
2021/03/27 11:25:25;;;;;;;12.70;3.60;;;;;;;8.08;66.35;100593.72;5016732;28;20040;-63
2021/03/27 11:28:21;;;;;;;10.55;3.00;;;;;;;8.02;66.24;100597.81;5017333;28;20455;-63
2021/03/27 11:31:15;;;;;;;9.63;2.50;;;;;;;7.93;66.22;100598.34;5016799;28;20124;-62
2021/03/27 11:34:23;;;;;;;10.52;2.78;;;;;;;7.88;66.54;100592.13;5017312;28;20049;-62
2021/03/27 11:37:03;;;;;;;7.30;3.20;;;;;;;7.86;66.32;100596.34;5017186;28;20196;-63
2021/03/27 11:39:43;;;;;;;7.70;3.30;;;;;;;7.86;66.58;100597.22;5017345;28;20041;-62
2021/03/27 11:42:27;;;;;;;11.63;3.05;;;;;;;7.88;66.66;100605.03;5016279;28;20052;-61
2021/03/27 11:45:10;;;;;;;6.32;2.63;;;;;;;7.89;66.53;100599.06;5017034;28;20042;-62
2021/03/27 11:48:00;;;;;;;7.75;2.72;;;;;;;7.91;66.46;100597.41;5016328;28;20096;-63
2021/03/27 11:50:47;;;;;;;11.63;3.83;;;;;;;7.91;66.53;100603.44;4999547;28;20049;-63
2021/03/27 11:53:50;;;;;;;11.95;2.85;;;;;;;7.92;66.40;100612.06;4999236;28;20033;-62
2021/03/27 11:56:43;;;;;;;14.32;4.00;;;;;;;7.90;66.71;100617.16;4999416;28;20046;-63
2021/03/27 12:00:47;;;;;;;9.32;3.45;;;;;;;7.91;66.41;100611.19;5016627;28;20070;-63
2021/03/27 12:02:31;;;;;;;6.55;2.83;;;;;;;7.94;66.50;100610.44;5016492;28;20045;-62
2021/03/27 12:05:33;;;;;;;7.25;3.03;;;;;;;8.00;66.51;100613.22;5016606;28;20138;-62
2021/03/27 12:08:04;;;;;;;10.88;3.50;;;;;;;8.01;66.35;100614.97;4999120;28;20036;-62
2021/03/27 12:11:24;;;;;;;8.32;3.45;;;;;;;8.03;66.37;100622.75;5016923;28;20074;-63
2021/03/27 12:14:24;;;;;;;7.22;2.80;;;;;;;8.01;66.10;100617.56;4994354;28;20483;-62
2021/03/27 12:17:14;;;;;;;10.95;3.17;;;;;;;8.03;66.33;100617.59;4979123;28;20522;-62
2021/03/27 12:19:58;;;;;;;16.80;3.95;;;;;;;8.06;66.20;100618.59;4998467;28;20034;-63
2021/03/27 12:22:41;;;;;;;7.25;3.00;;;;;;;8.11;66.19;100625.59;4998895;28;20411;-63
2021/03/27 12:25:22;;;;;;;10.45;3.20;;;;;;;8.13;65.94;100635.19;5015301;28;20041;-63
2021/03/27 12:28:22;;;;;;;7.15;3.08;;;;;;;8.16;66.01;100632.72;4999245;28;20046;-63
2021/03/27 12:31:06;;;;;;;4.10;2.55;;;;;;;8.19;66.20;100629.34;4997649;28;20057;-63
2021/03/27 12:33:50;;;;;;;7.95;2.90;;;;;;;8.22;65.88;100640.66;5016379;28;20045;-62
2021/03/27 12:36:28;;;;;;;9.23;3.28;;;;;;;8.25;66.05;100632.16;5015743;28;20104;-62
2021/03/27 12:39:15;;;;;;;4.25;2.20;;;;;;;8.24;66.12;100651.06;5016162;28;20064;-63
2021/03/27 12:42:18;;;;;;;13.27;4.13;;;;;;;8.21;65.66;100653.53;5015895;28;20469;-63
2021/03/27 12:44:55;;;;;;;6.00;2.30;;;;;;;8.20;65.75;100654.34;4998712;28;20116;-63
2021/03/27 12:47:48;;;;;;;4.95;2.60;;;;;;;8.17;65.55;100656.81;4998537;28;20045;-62
2021/03/27 12:50:25;;;;;;;4.28;2.15;;;;;;;8.15;65.58;100656.78;4997805;28;20034;-63
2021/03/27 12:53:16;;;;;;;5.20;2.50;;;;;;;8.13;65.48;100665.28;5016251;28;20096;-63
2021/03/27 12:56:19;;;;;;;5.72;3.10;;;;;;;8.11;65.48;100667.81;5014710;28;20046;-64
2021/03/27 12:59:27;;;;;;;7.07;2.63;;;;;;;8.07;65.58;100669.41;5015619;28;20034;-62